createdAt,value
2022-08-10T00:04:24.283Z,18.66
2022-08-10T00:09:50.635Z,18.64
2022-08-10T00:15:51.947Z,18.65
2022-08-10T00:20:56.708Z,18.71
2022-08-10T00:26:17.469Z,18.73
2022-08-10T00:31:57.981Z,18.70
2022-08-10T00:37:19.941Z,18.60
2022-08-10T00:42:40.596Z,18.56
2022-08-10T00:48:01.553Z,18.51
2022-08-10T00:53:22.381Z,18.51
2022-08-10T00:58:43.394Z,18.42
2022-08-10T01:04:57.398Z,18.36
2022-08-10T01:10:04.457Z,18.36
2022-08-10T01:15:48.829Z,18.40
2022-08-10T01:21:54.313Z,18.36
2022-08-10T01:27:31.847Z,18.33
2022-08-10T01:33:19.204Z,18.31
2022-08-10T01:38:54.502Z,18.26
2022-08-10T01:44:20.062Z,18.19
2022-08-10T01:49:40.795Z,18.02
2022-08-10T01:55:01.367Z,17.86
2022-08-10T02:00:22.448Z,17.70
2022-08-10T02:05:45.697Z,17.65
2022-08-10T02:11:07.994Z,17.47
2022-08-10T02:16:30.540Z,17.49
2022-08-10T02:22:15.396Z,17.51
2022-08-10T02:27:36.302Z,17.43
2022-08-10T02:32:59.525Z,17.43
2022-08-10T02:38:58.064Z,17.39
2022-08-10T02:45:23.753Z,17.29
2022-08-10T02:50:05.519Z,17.24
2022-08-10T02:55:52.428Z,17.36
2022-08-10T03:01:16.694Z,17.38
2022-08-10T03:06:44.866Z,17.41
2022-08-10T03:12:35.200Z,17.29
2022-08-10T03:17:58.061Z,17.31
2022-08-10T03:23:23.453Z,17.28
2022-08-10T03:28:45.600Z,17.31
2022-08-10T03:34:07.211Z,17.33
2022-08-10T03:39:43.262Z,17.37
2022-08-10T03:45:05.840Z,17.34
2022-08-10T03:50:51.375Z,17.27
2022-08-10T03:56:29.838Z,17.30
2022-08-10T04:02:45.176Z,17.30
2022-08-10T04:07:32.557Z,17.32
2022-08-10T04:12:53.648Z,17.36
2022-08-10T04:18:19.570Z,17.40
2022-08-10T04:23:52.577Z,17.44
2022-08-10T04:29:14.578Z,17.71
2022-08-10T04:34:37.063Z,18.03
2022-08-10T04:39:58.181Z,18.24
2022-08-10T04:45:18.885Z,18.49
2022-08-10T04:50:39.493Z,18.61
2022-08-10T04:55:59.985Z,18.81
2022-08-10T05:01:24.365Z,19.31
2022-08-10T05:06:45.933Z,19.71
2022-08-10T05:12:07.621Z,19.71
2022-08-10T05:17:28.353Z,19.64
2022-08-10T05:22:48.976Z,19.45
2022-08-10T05:28:09.664Z,19.41
2022-08-10T05:33:30.267Z,19.08
2022-08-10T05:38:51.838Z,19.06
2022-08-10T05:44:12.821Z,19.49
2022-08-10T05:49:34.036Z,19.81
2022-08-10T05:54:56.110Z,20.15
2022-08-10T06:00:36.826Z,20.51
2022-08-10T06:06:01.137Z,20.79
2022-08-10T06:12:27.530Z,21.17
2022-08-10T06:17:04.194Z,21.64
2022-08-10T06:22:27.085Z,22.02
2022-08-10T06:27:49.004Z,22.43
2022-08-10T06:33:10.363Z,22.79
2022-08-10T06:38:34.056Z,22.90
2022-08-10T06:44:01.752Z,23.26
2022-08-10T06:49:23.374Z,23.35
2022-08-10T06:54:45.066Z,23.57
2022-08-10T07:00:08.120Z,23.79
2022-08-10T07:05:30.989Z,23.97
2022-08-10T07:10:53.167Z,24.13
2022-08-10T07:16:15.821Z,24.15
2022-08-10T07:21:43.628Z,23.97
2022-08-10T07:27:06.787Z,23.97
2022-08-10T07:32:28.721Z,23.83
2022-08-10T07:37:52.045Z,23.69
2022-08-10T07:43:13.829Z,23.69
2022-08-10T07:48:40.768Z,23.77
2022-08-10T07:54:06.065Z,23.67
2022-08-10T07:59:37.816Z,23.77
2022-08-10T08:05:02.871Z,23.86
2022-08-10T08:10:27.064Z,23.83
2022-08-10T08:16:20.840Z,24.00
2022-08-10T08:24:05.538Z,24.06
2022-08-10T08:27:16.970Z,24.01
2022-08-10T08:32:41.173Z,24.05
2022-08-10T08:38:32.798Z,24.12
2022-08-10T08:44:19.966Z,24.07
2022-08-10T08:50:08.951Z,24.16
2022-08-10T08:56:05.619Z,24.15
2022-08-10T09:01:38.277Z,23.97
2022-08-10T09:08:00.465Z,23.88
2022-08-10T09:13:05.079Z,23.99
2022-08-10T09:18:37.021Z,24.02
2022-08-10T09:24:06.341Z,24.02
2022-08-10T09:29:31.285Z,24.27
2022-08-10T09:36:20.170Z,24.24
2022-08-10T09:41:12.277Z,24.26
2022-08-10T09:46:46.661Z,24.34
2022-08-10T09:52:24.772Z,24.43
2022-08-10T09:58:23.439Z,24.39
2022-08-10T10:03:59.794Z,24.39
2022-08-10T10:09:48.346Z,24.27
2022-08-10T10:15:24.866Z,24.36
2022-08-10T10:21:51.323Z,24.41
2022-08-10T10:26:59.984Z,24.48
2022-08-10T10:32:45.256Z,24.69
2022-08-10T10:38:09.156Z,24.70
2022-08-10T10:43:59.814Z,24.64
2022-08-10T10:50:03.688Z,24.63
2022-08-10T10:56:13.501Z,24.69
2022-08-10T11:01:52.800Z,24.68
2022-08-10T11:07:31.690Z,24.49
2022-08-10T11:14:25.370Z,24.52
2022-08-10T11:19:07.737Z,24.64
2022-08-10T11:24:52.758Z,24.56
2022-08-10T11:30:19.290Z,24.47
2022-08-10T11:35:53.709Z,24.27
2022-08-10T11:42:10.070Z,24.27
2022-08-10T11:47:44.989Z,24.45
2022-08-10T11:53:17.927Z,24.43
2022-08-10T11:59:01.822Z,24.45
2022-08-10T12:04:42.167Z,24.82
2022-08-10T12:10:13.101Z,25.01
2022-08-10T12:15:43.606Z,24.79
2022-08-10T12:21:10.108Z,24.44
2022-08-10T12:26:55.553Z,24.42
2022-08-10T12:32:27.264Z,24.53
2022-08-10T12:38:07.096Z,24.30
2022-08-10T12:44:06.485Z,24.03
2022-08-10T12:50:29.938Z,24.02
2022-08-10T12:55:39.915Z,24.37
2022-08-10T13:01:16.441Z,24.60
2022-08-10T13:06:46.166Z,24.77
2022-08-10T13:12:38.304Z,24.63
2022-08-10T13:17:59.432Z,24.41
2022-08-10T13:23:30.023Z,24.15
2022-08-10T13:29:01.996Z,24.20
2022-08-10T13:34:43.652Z,24.20
2022-08-10T13:40:10.259Z,24.33
2022-08-10T13:45:31.769Z,24.34
2022-08-10T13:50:58.482Z,24.45
2022-08-10T13:56:21.450Z,24.56
2022-08-10T14:01:50.768Z,24.57
2022-08-10T14:07:12.420Z,24.66
2022-08-10T14:12:40.617Z,24.69
2022-08-10T14:18:03.956Z,24.69
2022-08-10T14:23:25.001Z,24.64
2022-08-10T14:28:54.693Z,24.56
2022-08-10T14:34:18.211Z,24.60
2022-08-10T14:39:55.264Z,24.62
2022-08-10T14:45:28.013Z,24.57
2022-08-10T14:50:55.902Z,24.58
2022-08-10T14:56:24.604Z,24.68
2022-08-10T15:02:00.835Z,24.67
2022-08-10T15:07:30.364Z,24.68
2022-08-10T15:12:53.306Z,24.70
2022-08-10T15:18:14.935Z,24.70
2022-08-10T15:24:05.364Z,24.60
2022-08-10T15:29:24.033Z,24.57
2022-08-10T15:35:06.810Z,24.60
2022-08-10T15:40:35.996Z,24.44
2022-08-10T15:46:17.205Z,24.31
2022-08-10T15:52:02.178Z,24.15
2022-08-10T15:57:27.672Z,24.10
2022-08-10T16:02:58.202Z,24.16
2022-08-10T16:08:36.160Z,24.18
2022-08-10T16:14:23.447Z,24.12
2022-08-10T16:19:51.338Z,24.06
2022-08-10T16:25:15.531Z,24.10
2022-08-10T16:30:59.306Z,24.12
2022-08-10T16:36:21.448Z,24.14
2022-08-10T16:42:04.219Z,24.12
2022-08-10T16:47:27.591Z,24.02
2022-08-10T16:52:52.374Z,23.96
2022-08-10T16:58:15.527Z,23.87
2022-08-10T17:04:06.480Z,23.82
2022-08-10T17:09:34.423Z,23.77
2022-08-10T17:15:09.422Z,23.68
2022-08-10T17:20:38.272Z,23.60
2022-08-10T17:26:02.970Z,23.55
2022-08-10T17:31:54.145Z,23.53
2022-08-10T17:37:20.011Z,23.49
2022-08-10T17:42:44.711Z,23.44
2022-08-10T17:48:08.263Z,23.36
2022-08-10T17:53:39.985Z,23.29
2022-08-10T17:59:11.498Z,23.23
2022-08-10T18:04:41.988Z,23.16
2022-08-10T18:10:05.770Z,23.07
2022-08-10T18:15:28.772Z,22.99
2022-08-10T18:20:53.804Z,22.86
2022-08-10T18:26:19.369Z,22.73
2022-08-10T18:31:43.680Z,22.64
2022-08-10T18:37:07.987Z,22.60
2022-08-10T18:42:41.682Z,22.63
2022-08-10T18:48:09.534Z,22.52
2022-08-10T18:53:50.663Z,22.44
2022-08-10T18:59:11.068Z,22.30
2022-08-10T19:05:30.942Z,22.22
2022-08-10T19:11:01.597Z,22.14
2022-08-10T19:16:47.965Z,22.07
2022-08-10T19:22:14.593Z,22.01
2022-08-10T19:27:40.119Z,21.88
2022-08-10T19:33:25.566Z,21.81
2022-08-10T19:39:19.940Z,21.71
2022-08-10T19:44:55.045Z,21.64
2022-08-10T19:50:29.455Z,21.65
2022-08-10T19:56:32.991Z,21.59
2022-08-10T20:01:56.547Z,21.50
2022-08-10T20:07:36.329Z,21.53
2022-08-10T20:13:13.665Z,21.57
2022-08-10T20:18:43.374Z,21.51
2022-08-10T20:24:16.340Z,21.44
2022-08-10T20:29:58.995Z,21.36
2022-08-10T20:35:51.853Z,21.33
2022-08-10T20:41:51.757Z,21.23
2022-08-10T20:47:22.539Z,21.34
2022-08-10T20:52:45.538Z,21.29
2022-08-10T20:58:31.748Z,21.16
2022-08-10T21:03:58.684Z,21.06
2022-08-10T21:09:58.142Z,21.10
2022-08-10T21:15:45.975Z,21.12
2022-08-10T21:21:37.740Z,20.99
2022-08-10T21:27:33.353Z,20.81
2022-08-10T21:33:03.463Z,20.64
2022-08-10T21:38:45.560Z,20.70
2022-08-10T21:44:39.254Z,20.67
2022-08-10T21:50:27.428Z,20.58
2022-08-10T21:56:45.185Z,20.48
2022-08-10T22:08:30.447Z,20.37
2022-08-10T22:14:11.129Z,20.35
2022-08-10T22:19:58.971Z,20.24
2022-08-10T22:25:53.488Z,20.09
2022-08-10T22:32:26.762Z,19.85
2022-08-10T22:38:08.865Z,19.85
2022-08-10T22:43:50.963Z,19.93
2022-08-10T22:49:13.356Z,20.07
2022-08-10T22:55:11.881Z,20.16
2022-08-10T23:00:33.251Z,20.21
2022-08-10T23:06:08.422Z,20.22
2022-08-10T23:11:35.383Z,20.16
2022-08-10T23:17:15.142Z,20.11
2022-08-10T23:22:38.438Z,20.06
2022-08-10T23:28:03.111Z,19.94
2022-08-10T23:33:37.385Z,19.87
2022-08-10T23:39:25.643Z,19.85
2022-08-10T23:44:47.527Z,19.76
2022-08-10T23:50:11.206Z,19.64
2022-08-10T23:55:49.010Z,19.53
